Time;durP1;ratioP1;P1;durP2;ratioP2;P2;SDS_P1;SDS_P2;PMS_P1;PMS_P2;Temp;Humidity;BMP_temperature;BMP_pressure;BME280_temperature;BME280_humidity;BME280_pressure;Samples;Min_cycle;Max_cycle;Signal;HPM_P1;HPM_P2
2023/01/12 00:38:10;;;;;;;7.27;2.67;;;;;;;;;;4971970;28;20466;-95
2023/01/12 00:41:07;;;;;;;6.07;2.60;;;;;;;;;;4945999;28;20511;-94
2023/01/12 00:47:11;;;;;;;8.10;3.30;;;;;;;;;;4954926;28;20492;-95
2023/01/12 00:50:18;;;;;;;5.50;2.70;;;;;;;;;;4942800;29;20811;-94
2023/01/12 00:53:16;;;;;;;12.07;3.53;;;;;;;;;;4952333;29;20631;-95
2023/01/12 00:56:12;;;;;;;7.97;4.10;;;;;;;;;;4963502;28;20479;-95
2023/01/12 00:59:04;;;;;;;9.03;3.60;;;;;;;;;;4956785;28;20470;-95
2023/01/12 01:01:56;;;;;;;6.50;3.07;;;;;;;;;;4956789;29;20456;-95
2023/01/12 01:04:47;;;;;;;8.40;4.13;;;;;;;;;;4960988;29;20524;-95
2023/01/12 01:07:36;;;;;;;6.70;2.97;;;;;;;;;;4966690;28;20457;-94
2023/01/12 01:10:27;;;;;;;5.67;3.50;;;;;;;;;;4953744;28;20484;-94
2023/01/12 01:13:18;;;;;;;5.27;2.97;;;;;;;;;;4958190;28;20476;-94
2023/01/12 01:16:08;;;;;;;8.63;3.50;;;;;;;;;;4956765;28;20441;-94
2023/01/12 01:19:07;;;;;;;5.00;2.80;;;;;;;;;;4953814;28;20454;-94
2023/01/12 01:21:58;;;;;;;5.77;2.93;;;;;;;;;;4950247;29;20544;-94
2023/01/12 01:24:56;;;;;;;9.33;3.37;;;;;;;;;;4959492;28;20456;-93
2023/01/12 01:27:50;;;;;;;6.57;3.17;;;;;;;;;;4951186;28;20461;-93
2023/01/12 01:30:39;;;;;;;6.53;3.67;;;;;;;;;;4945778;29;20490;-94
2023/01/12 01:33:29;;;;;;;8.50;3.13;;;;;;;;;;4957602;28;20479;-93
2023/01/12 01:36:19;;;;;;;5.23;3.43;;;;;;;;;;4950272;28;20479;-94
2023/01/12 01:39:09;;;;;;;6.70;2.90;;;;;;;;;;4950180;29;21449;-93
2023/01/12 01:41:59;;;;;;;6.00;3.00;;;;;;;;;;4950786;28;20533;-94
2023/01/12 01:44:54;;;;;;;6.37;2.90;;;;;;;;;;4955502;28;20459;-93
2023/01/12 01:47:45;;;;;;;3.20;2.27;;;;;;;;;;4954354;28;20469;-95
2023/01/12 01:50:36;;;;;;;6.10;2.77;;;;;;;;;;4955273;28;20550;-93
2023/01/12 01:53:29;;;;;;;6.47;2.77;;;;;;;;;;4957051;29;20485;-94
2023/01/12 01:56:23;;;;;;;8.07;3.10;;;;;;;;;;4952064;28;20537;-94
2023/01/12 01:59:15;;;;;;;5.70;3.00;;;;;;;;;;4951677;29;20492;-94
2023/01/12 02:02:07;;;;;;;7.40;2.83;;;;;;;;;;4955784;28;20483;-95
2023/01/12 02:04:57;;;;;;;7.30;2.57;;;;;;;;;;4958320;29;20476;-95
2023/01/12 02:07:46;;;;;;;8.20;3.03;;;;;;;;;;4947999;29;20669;-94
2023/01/12 02:10:38;;;;;;;4.67;2.30;;;;;;;;;;4945788;29;20479;-94
2023/01/12 02:16:37;;;;;;;5.10;2.57;;;;;;;;;;4953460;28;20530;-95
2023/01/12 02:19:40;;;;;;;5.43;2.47;;;;;;;;;;4951761;29;20482;-94
2023/01/12 02:22:49;;;;;;;5.93;2.73;;;;;;;;;;4951358;29;20440;-94
2023/01/12 02:26:07;;;;;;;4.30;2.47;;;;;;;;;;4951773;29;20460;-94
2023/01/12 02:29:09;;;;;;;7.33;3.30;;;;;;;;;;4951990;28;20893;-95
2023/01/12 02:32:06;;;;;;;5.00;2.83;;;;;;;;;;4949128;29;20468;-94
2023/01/12 02:35:01;;;;;;;5.50;2.67;;;;;;;;;;4945764;29;20456;-95
2023/01/12 02:37:55;;;;;;;8.50;2.67;;;;;;;;;;4951363;29;20457;-94
2023/01/12 02:40:48;;;;;;;8.30;3.10;;;;;;;;;;4952110;29;20583;-94
2023/01/12 02:43:42;;;;;;;3.77;2.70;;;;;;;;;;4955269;28;20461;-94
2023/01/12 02:46:32;;;;;;;8.40;3.20;;;;;;;;;;4958033;28;20463;-93
2023/01/12 02:49:24;;;;;;;7.33;2.87;;;;;;;;;;4946307;28;20520;-94
2023/01/12 02:52:15;;;;;;;4.30;2.53;;;;;;;;;;4954323;28;20441;-94
2023/01/12 02:55:05;;;;;;;6.17;2.87;;;;;;;;;;4958953;28;20460;-95
2023/01/12 02:57:57;;;;;;;4.60;2.13;;;;;;;;;;4959444;28;20442;-94
2023/01/12 03:00:49;;;;;;;3.87;2.50;;;;;;;;;;4955598;28;20482;-94
2023/01/12 03:03:39;;;;;;;3.10;2.43;;;;;;;;;;4953374;28;20448;-95
2023/01/12 03:06:38;;;;;;;3.27;2.50;;;;;;;;;;4952735;29;20468;-94
2023/01/12 03:09:30;;;;;;;4.80;2.50;;;;;;;;;;4958197;28;20478;-93
2023/01/12 03:12:21;;;;;;;4.80;2.57;;;;;;;;;;4944929;29;20464;-95
2023/01/12 03:15:12;;;;;;;3.97;2.60;;;;;;;;;;4954828;28;20476;-95
2023/01/12 03:18:03;;;;;;;6.83;3.00;;;;;;;;;;4953623;28;20488;-94
2023/01/12 03:20:55;;;;;;;5.73;2.10;;;;;;;;;;4949795;29;20507;-94
2023/01/12 03:23:48;;;;;;;4.03;2.40;;;;;;;;;;4948479;29;20536;-95
2023/01/12 03:26:42;;;;;;;4.47;2.40;;;;;;;;;;4955548;29;20910;-95
2023/01/12 03:29:36;;;;;;;6.93;2.70;;;;;;;;;;4949695;29;20496;-95
2023/01/12 03:32:26;;;;;;;5.07;2.80;;;;;;;;;;4948009;29;20460;-94
2023/01/12 03:35:15;;;;;;;5.80;2.30;;;;;;;;;;4947705;29;20464;-94
2023/01/12 03:38:08;;;;;;;6.43;3.40;;;;;;;;;;4955114;28;20456;-95
2023/01/12 03:41:05;;;;;;;6.97;2.87;;;;;;;;;;4948277;29;20479;-95
2023/01/12 03:44:01;;;;;;;4.20;1.77;;;;;;;;;;4952073;29;20449;-94
2023/01/12 03:46:54;;;;;;;4.70;2.03;;;;;;;;;;4951619;29;20458;-94
2023/01/12 03:49:48;;;;;;;3.77;1.70;;;;;;;;;;4945815;29;20724;-95
2023/01/12 03:52:40;;;;;;;6.67;2.37;;;;;;;;;;4952307;29;20475;-94
2023/01/12 03:55:34;;;;;;;6.30;2.40;;;;;;;;;;4955072;29;20449;-95
2023/01/12 03:58:27;;;;;;;2.77;1.80;;;;;;;;;;4952282;29;20523;-95
2023/01/12 04:01:17;;;;;;;4.33;1.70;;;;;;;;;;4950438;29;20520;-94
2023/01/12 04:04:06;;;;;;;3.47;2.20;;;;;;;;;;4952663;29;20480;-95
2023/01/12 04:06:55;;;;;;;4.80;2.50;;;;;;;;;;4955845;29;20556;-96
2023/01/12 04:09:45;;;;;;;7.87;2.33;;;;;;;;;;4955607;28;20479;-94
2023/01/12 04:12:35;;;;;;;2.67;2.27;;;;;;;;;;4955105;29;20528;-94
2023/01/12 04:15:28;;;;;;;4.63;2.70;;;;;;;;;;4949714;28;20559;-94
2023/01/12 04:18:17;;;;;;;4.63;2.43;;;;;;;;;;4956130;28;20470;-95
2023/01/12 04:22:41;;;;;;;4.67;2.53;;;;;;;;;;4956676;29;20551;-95
2023/01/12 04:24:14;;;;;;;4.43;2.73;;;;;;;;;;4954216;29;20464;-94
2023/01/12 04:27:04;;;;;;;3.70;2.50;;;;;;;;;;4957335;29;20484;-94
2023/01/12 04:29:54;;;;;;;4.00;2.37;;;;;;;;;;4952362;29;20464;-94
2023/01/12 04:32:46;;;;;;;3.10;2.80;;;;;;;;;;4956652;29;20469;-94
2023/01/12 04:35:35;;;;;;;3.73;2.97;;;;;;;;;;4946745;29;20480;-95
2023/01/12 04:38:27;;;;;;;4.50;2.80;;;;;;;;;;4955061;29;20464;-94
2023/01/12 04:41:16;;;;;;;5.27;3.00;;;;;;;;;;4954299;29;20512;-93
2023/01/12 04:44:06;;;;;;;4.87;3.33;;;;;;;;;;4956617;29;20474;-94
2023/01/12 04:47:01;;;;;;;6.00;2.67;;;;;;;;;;4955687;28;20436;-95
2023/01/12 04:49:53;;;;;;;4.43;3.07;;;;;;;;;;4957744;28;20577;-94
2023/01/12 04:52:44;;;;;;;6.10;3.40;;;;;;;;;;4956659;29;20472;-94
2023/01/12 04:55:33;;;;;;;6.47;3.70;;;;;;;;;;4949020;29;20539;-94
2023/01/12 04:58:28;;;;;;;4.47;3.00;;;;;;;;;;4952503;29;20748;-95
2023/01/12 05:01:21;;;;;;;6.73;4.20;;;;;;;;;;4953652;29;20495;-94
2023/01/12 05:04:13;;;;;;;4.50;2.80;;;;;;;;;;4950380;28;20464;-93
2023/01/12 05:07:04;;;;;;;8.27;3.27;;;;;;;;;;4942405;29;20488;-94
2023/01/12 05:13:01;;;;;;;5.10;3.10;;;;;;;;;;4944873;29;20480;-92
2023/01/12 05:15:51;;;;;;;3.47;2.53;;;;;;;;;;4952997;29;20964;-93
2023/01/12 05:18:43;;;;;;;4.80;2.80;;;;;;;;;;4957828;28;20486;-95
2023/01/12 05:21:33;;;;;;;4.33;2.70;;;;;;;;;;4956802;28;20547;-92
2023/01/12 05:24:26;;;;;;;5.57;2.80;;;;;;;;;;4954359;29;20464;-94
2023/01/12 05:27:16;;;;;;;6.87;3.07;;;;;;;;;;4953844;29;20436;-92
2023/01/12 05:30:08;;;;;;;5.30;3.00;;;;;;;;;;4952114;29;20500;-92
2023/01/12 05:32:59;;;;;;;5.63;3.57;;;;;;;;;;4949172;28;20450;-92
2023/01/12 05:35:52;;;;;;;4.87;2.90;;;;;;;;;;4955629;28;20484;-93
2023/01/12 05:38:42;;;;;;;4.47;3.23;;;;;;;;;;4951392;28;20452;-92
2023/01/12 05:41:35;;;;;;;4.93;3.50;;;;;;;;;;4956278;28;20460;-91
2023/01/12 05:44:23;;;;;;;4.87;2.93;;;;;;;;;;4953429;28;20460;-93
2023/01/12 05:47:13;;;;;;;7.90;2.80;;;;;;;;;;4948801;28;20445;-92
2023/01/12 05:50:02;;;;;;;4.00;2.93;;;;;;;;;;4949378;28;20599;-94
2023/01/12 05:52:53;;;;;;;3.83;2.87;;;;;;;;;;4949829;29;20989;-93
2023/01/12 05:55:43;;;;;;;6.40;2.73;;;;;;;;;;4949029;29;20477;-93
2023/01/12 05:58:34;;;;;;;4.53;2.80;;;;;;;;;;4946917;29;20453;-92
2023/01/12 06:01:23;;;;;;;2.60;2.40;;;;;;;;;;4939240;29;20476;-91
2023/01/12 06:04:12;;;;;;;4.17;2.70;;;;;;;;;;4943141;29;20463;-92
2023/01/12 06:07:01;;;;;;;3.93;2.53;;;;;;;;;;4946407;29;20462;-93
2023/01/12 06:09:51;;;;;;;4.10;2.53;;;;;;;;;;4945541;29;20559;-93
2023/01/12 06:15:48;;;;;;;3.30;2.50;;;;;;;;;;4934547;29;20491;-92
2023/01/12 06:18:41;;;;;;;3.70;2.43;;;;;;;;;;4946774;29;20464;-93
2023/01/12 06:21:32;;;;;;;6.33;2.97;;;;;;;;;;4947787;29;20478;-94
2023/01/12 06:24:24;;;;;;;3.33;2.57;;;;;;;;;;4937876;29;20445;-92
2023/01/12 06:27:15;;;;;;;2.80;2.60;;;;;;;;;;4949810;28;20516;-95
2023/01/12 13:10:59;;;;;;;2.13;2.03;;;;;;;;;;3907669;23;20830;-90
2023/01/12 13:14:00;;;;;;;2.07;1.87;;;;;;;;;;4956628;28;20470;-95
2023/01/12 13:16:51;;;;;;;2.67;1.90;;;;;;;;;;4948857;28;20459;-92
2023/01/12 13:19:41;;;;;;;2.50;1.63;;;;;;;;;;4952285;28;20456;-93
2023/01/12 13:22:43;;;;;;;1.73;1.63;;;;;;;;;;4962116;28;20467;-94
2023/01/12 13:25:51;;;;;;;3.90;1.50;;;;;;;;;;4953518;28;20446;-92
2023/01/12 13:28:41;;;;;;;3.03;1.50;;;;;;;;;;4953632;28;20529;-93
2023/01/12 13:31:32;;;;;;;3.80;1.60;;;;;;;;;;4941098;28;20604;-92
2023/01/12 13:34:45;;;;;;;2.57;2.07;;;;;;;;;;4949772;28;20583;-92
2023/01/12 13:37:48;;;;;;;9.10;2.40;;;;;;;;;;4950027;28;20467;-93
2023/01/12 13:40:39;;;;;;;2.97;1.20;;;;;;;;;;4954753;28;20501;-93
2023/01/12 13:43:46;;;;;;;7.17;2.00;;;;;;;;;;4957732;28;20606;-93
2023/01/12 13:46:41;;;;;;;3.93;1.90;;;;;;;;;;4957711;28;20462;-94
2023/01/12 13:49:32;;;;;;;3.73;1.90;;;;;;;;;;4951605;28;20464;-92
2023/01/12 13:52:23;;;;;;;5.40;1.80;;;;;;;;;;4964701;28;20491;-93
2023/01/12 13:59:19;;;;;;;3.73;1.73;;;;;;;;;;4964473;28;20444;-94
2023/01/12 14:02:40;;;;;;;3.80;2.07;;;;;;;;;;4951320;28;20503;-96
2023/01/12 14:06:07;;;;;;;5.73;2.10;;;;;;;;;;4961729;28;20458;-95
2023/01/12 14:09:02;;;;;;;3.17;2.00;;;;;;;;;;4961924;28;20440;-94
2023/01/12 14:12:12;;;;;;;2.00;1.40;;;;;;;;;;4946960;28;20491;-94
2023/01/12 14:18:24;;;;;;;4.13;2.20;;;;;;;;;;4951541;28;20463;-93
2023/01/12 14:21:27;;;;;;;4.63;2.20;;;;;;;;;;4942089;28;20575;-94
2023/01/12 14:24:17;;;;;;;5.20;2.40;;;;;;;;;;4951548;28;20462;-94
2023/01/12 14:27:15;;;;;;;3.63;2.30;;;;;;;;;;4954686;28;20522;-93
2023/01/12 14:30:05;;;;;;;6.63;2.97;;;;;;;;;;4947615;28;20491;-92
2023/01/12 14:32:54;;;;;;;4.67;2.30;;;;;;;;;;4952913;28;20546;-93
2023/01/12 14:35:46;;;;;;;4.57;2.43;;;;;;;;;;4959541;28;20472;-94
2023/01/12 14:38:41;;;;;;;6.07;2.60;;;;;;;;;;4954282;28;20454;-94
2023/01/12 14:47:56;;;;;;;4.37;2.17;;;;;;;;;;4971067;28;20769;-94
2023/01/12 14:51:00;;;;;;;8.30;2.67;;;;;;;;;;4969674;28;20489;-94
2023/01/12 14:53:56;;;;;;;7.40;3.30;;;;;;;;;;4978310;28;20432;-96
2023/01/12 14:56:49;;;;;;;4.20;2.57;;;;;;;;;;4972567;28;20473;-95
2023/01/12 14:59:43;;;;;;;7.53;2.73;;;;;;;;;;4977056;28;20458;-94
2023/01/12 15:02:44;;;;;;;5.93;2.60;;;;;;;;;;4981057;28;20444;-96
